sensor_id;sensor_type;location;lat;lon;timestamp;temperature;humidity
5196;DHT22;2617;51.006;12.436;2024-01-15T00:04:09;0.60;99.90
5196;DHT22;2617;51.006;12.436;2024-01-15T00:09:11;0.60;99.90
5196;DHT22;2617;51.006;12.436;2024-01-15T00:14:14;0.50;99.90
5196;DHT22;2617;51.006;12.436;2024-01-15T00:19:17;0.50;99.90
5196;DHT22;2617;51.006;12.436;2024-01-15T00:24:20;0.50;99.90
5196;DHT22;2617;51.006;12.436;2024-01-15T00:29:22;0.50;99.90
5196;DHT22;2617;51.006;12.436;2024-01-15T00:34:24;0.50;99.90
5196;DHT22;2617;51.006;12.436;2024-01-15T00:39:27;0.50;99.90
5196;DHT22;2617;51.006;12.436;2024-01-15T00:44:30;0.50;99.90
5196;DHT22;2617;51.006;12.436;2024-01-15T00:49:32;0.50;99.90
5196;DHT22;2617;51.006;12.436;2024-01-15T00:54:35;0.60;99.90
5196;DHT22;2617;51.006;12.436;2024-01-15T00:59:37;0.60;99.90
5196;DHT22;2617;51.006;12.436;2024-01-15T01:04:40;0.50;99.90
5196;DHT22;2617;51.006;12.436;2024-01-15T01:09:42;0.50;99.90
5196;DHT22;2617;51.006;12.436;2024-01-15T01:14:45;0.40;99.90
5196;DHT22;2617;51.006;12.436;2024-01-15T01:19:49;0.40;99.90
5196;DHT22;2617;51.006;12.436;2024-01-15T01:24:51;0.40;99.90
5196;DHT22;2617;51.006;12.436;2024-01-15T01:29:53;0.40;99.90
5196;DHT22;2617;51.006;12.436;2024-01-15T01:34:57;0.40;99.90
5196;DHT22;2617;51.006;12.436;2024-01-15T01:39:59;0.40;99.90
5196;DHT22;2617;51.006;12.436;2024-01-15T01:45:02;0.40;99.90
5196;DHT22;2617;51.006;12.436;2024-01-15T01:50:04;0.40;99.90
5196;DHT22;2617;51.006;12.436;2024-01-15T01:55:07;0.50;99.90
5196;DHT22;2617;51.006;12.436;2024-01-15T02:00:11;0.50;99.90
5196;DHT22;2617;51.006;12.436;2024-01-15T02:05:14;0.50;99.90
5196;DHT22;2617;51.006;12.436;2024-01-15T02:10:18;0.50;99.90
5196;DHT22;2617;51.006;12.436;2024-01-15T02:15:20;0.50;99.90
5196;DHT22;2617;51.006;12.436;2024-01-15T02:20:23;0.50;99.90
5196;DHT22;2617;51.006;12.436;2024-01-15T02:25:25;0.50;99.90
5196;DHT22;2617;51.006;12.436;2024-01-15T02:30:28;0.50;99.90
5196;DHT22;2617;51.006;12.436;2024-01-15T02:35:30;0.50;99.90
5196;DHT22;2617;51.006;12.436;2024-01-15T02:40:33;0.50;99.90
5196;DHT22;2617;51.006;12.436;2024-01-15T02:45:35;0.50;99.90
5196;DHT22;2617;51.006;12.436;2024-01-15T02:50:38;0.50;99.90
5196;DHT22;2617;51.006;12.436;2024-01-15T02:55:41;0.50;99.90
5196;DHT22;2617;51.006;12.436;2024-01-15T03:00:43;0.50;99.90
5196;DHT22;2617;51.006;12.436;2024-01-15T03:05:46;0.40;99.90
5196;DHT22;2617;51.006;12.436;2024-01-15T03:10:48;0.30;99.90
5196;DHT22;2617;51.006;12.436;2024-01-15T03:15:51;0.20;99.90
5196;DHT22;2617;51.006;12.436;2024-01-15T03:20:53;0.20;99.90
5196;DHT22;2617;51.006;12.436;2024-01-15T03:25:56;0.10;99.90
5196;DHT22;2617;51.006;12.436;2024-01-15T03:30:59;0.10;99.90
5196;DHT22;2617;51.006;12.436;2024-01-15T03:36:01;0.00;99.90
5196;DHT22;2617;51.006;12.436;2024-01-15T03:41:04;0.10;99.90
5196;DHT22;2617;51.006;12.436;2024-01-15T03:46:06;0.00;99.90
5196;DHT22;2617;51.006;12.436;2024-01-15T03:51:09;0.00;99.90
5196;DHT22;2617;51.006;12.436;2024-01-15T03:56:11;0.00;99.90
5196;DHT22;2617;51.006;12.436;2024-01-15T04:01:14;0.00;99.90
5196;DHT22;2617;51.006;12.436;2024-01-15T04:06:17;0.10;99.90
5196;DHT22;2617;51.006;12.436;2024-01-15T04:11:19;0.00;99.90
5196;DHT22;2617;51.006;12.436;2024-01-15T04:16:23;0.00;99.90
5196;DHT22;2617;51.006;12.436;2024-01-15T04:21:26;0.10;99.90
5196;DHT22;2617;51.006;12.436;2024-01-15T04:26:29;0.00;99.90
5196;DHT22;2617;51.006;12.436;2024-01-15T04:31:31;0.10;99.90
5196;DHT22;2617;51.006;12.436;2024-01-15T04:36:38;0.10;99.90
5196;DHT22;2617;51.006;12.436;2024-01-15T04:41:41;0.00;99.90
5196;DHT22;2617;51.006;12.436;2024-01-15T04:46:43;0.00;99.90
5196;DHT22;2617;51.006;12.436;2024-01-15T04:51:46;0.00;99.90
5196;DHT22;2617;51.006;12.436;2024-01-15T04:56:48;0.00;99.90
5196;DHT22;2617;51.006;12.436;2024-01-15T05:01:51;0.00;99.90
5196;DHT22;2617;51.006;12.436;2024-01-15T05:06:54;0.00;99.90
5196;DHT22;2617;51.006;12.436;2024-01-15T05:11:57;0.00;99.90
5196;DHT22;2617;51.006;12.436;2024-01-15T05:17:00;0.10;99.90
5196;DHT22;2617;51.006;12.436;2024-01-15T05:22:02;0.10;99.90
5196;DHT22;2617;51.006;12.436;2024-01-15T05:27:05;0.10;99.90
5196;DHT22;2617;51.006;12.436;2024-01-15T05:32:08;0.20;99.90
5196;DHT22;2617;51.006;12.436;2024-01-15T05:37:10;0.10;99.90
5196;DHT22;2617;51.006;12.436;2024-01-15T05:42:14;0.10;99.90
5196;DHT22;2617;51.006;12.436;2024-01-15T05:47:16;0.10;99.90
5196;DHT22;2617;51.006;12.436;2024-01-15T05:52:18;0.10;99.90
5196;DHT22;2617;51.006;12.436;2024-01-15T05:57:21;0.00;99.90
5196;DHT22;2617;51.006;12.436;2024-01-15T06:02:23;0.00;99.90
5196;DHT22;2617;51.006;12.436;2024-01-15T06:07:26;0.00;99.90
5196;DHT22;2617;51.006;12.436;2024-01-15T06:12:28;0.00;99.90
5196;DHT22;2617;51.006;12.436;2024-01-15T06:17:31;-0.10;99.90
5196;DHT22;2617;51.006;12.436;2024-01-15T06:22:33;0.00;99.90
5196;DHT22;2617;51.006;12.436;2024-01-15T06:27:36;-0.10;99.90
5196;DHT22;2617;51.006;12.436;2024-01-15T06:32:39;-0.10;99.90
5196;DHT22;2617;51.006;12.436;2024-01-15T06:37:42;-0.30;99.90
5196;DHT22;2617;51.006;12.436;2024-01-15T06:42:45;-0.30;99.90
5196;DHT22;2617;51.006;12.436;2024-01-15T06:47:47;-0.30;99.90
5196;DHT22;2617;51.006;12.436;2024-01-15T06:52:50;-0.40;99.90
5196;DHT22;2617;51.006;12.436;2024-01-15T06:57:52;-0.40;99.90
5196;DHT22;2617;51.006;12.436;2024-01-15T07:02:54;-0.40;99.90
5196;DHT22;2617;51.006;12.436;2024-01-15T07:07:57;-0.40;99.90
5196;DHT22;2617;51.006;12.436;2024-01-15T07:13:00;-0.40;99.90
5196;DHT22;2617;51.006;12.436;2024-01-15T07:18:02;-0.30;99.90
5196;DHT22;2617;51.006;12.436;2024-01-15T07:23:05;-0.20;99.90
5196;DHT22;2617;51.006;12.436;2024-01-15T07:28:07;-0.20;99.90
5196;DHT22;2617;51.006;12.436;2024-01-15T07:33:10;-0.20;99.90
5196;DHT22;2617;51.006;12.436;2024-01-15T07:38:12;-0.20;99.90
5196;DHT22;2617;51.006;12.436;2024-01-15T07:43:15;-0.20;99.90
5196;DHT22;2617;51.006;12.436;2024-01-15T07:48:18;-0.20;99.90
5196;DHT22;2617;51.006;12.436;2024-01-15T07:53:20;-0.20;99.90
5196;DHT22;2617;51.006;12.436;2024-01-15T07:58:22;-0.10;99.90
5196;DHT22;2617;51.006;12.436;2024-01-15T08:03:26;-0.10;99.90
5196;DHT22;2617;51.006;12.436;2024-01-15T08:08:28;-0.10;99.90
5196;DHT22;2617;51.006;12.436;2024-01-15T08:13:31;-0.20;99.90
5196;DHT22;2617;51.006;12.436;2024-01-15T08:18:33;-0.20;99.90
5196;DHT22;2617;51.006;12.436;2024-01-15T08:23:35;-0.20;99.90
5196;DHT22;2617;51.006;12.436;2024-01-15T08:28:38;-0.20;99.90
5196;DHT22;2617;51.006;12.436;2024-01-15T08:33:40;-0.10;99.90
5196;DHT22;2617;51.006;12.436;2024-01-15T08:38:43;-0.20;99.90
5196;DHT22;2617;51.006;12.436;2024-01-15T08:43:45;-0.20;99.90
5196;DHT22;2617;51.006;12.436;2024-01-15T08:48:48;-0.10;99.90
5196;DHT22;2617;51.006;12.436;2024-01-15T08:53:50;0.10;99.90
5196;DHT22;2617;51.006;12.436;2024-01-15T08:58:53;0.20;99.90
5196;DHT22;2617;51.006;12.436;2024-01-15T09:03:55;0.40;99.90
5196;DHT22;2617;51.006;12.436;2024-01-15T09:08:59;0.40;99.90
5196;DHT22;2617;51.006;12.436;2024-01-15T09:14:01;0.40;99.90
5196;DHT22;2617;51.006;12.436;2024-01-15T09:19:04;0.30;99.90
5196;DHT22;2617;51.006;12.436;2024-01-15T09:24:07;0.70;99.90
5196;DHT22;2617;51.006;12.436;2024-01-15T09:29:09;0.70;99.90
5196;DHT22;2617;51.006;12.436;2024-01-15T09:34:12;1.00;99.90
5196;DHT22;2617;51.006;12.436;2024-01-15T09:39:14;1.10;99.90
5196;DHT22;2617;51.006;12.436;2024-01-15T09:44:17;1.30;99.90
5196;DHT22;2617;51.006;12.436;2024-01-15T09:49:19;1.60;99.90
5196;DHT22;2617;51.006;12.436;2024-01-15T09:54:22;1.90;99.90
5196;DHT22;2617;51.006;12.436;2024-01-15T09:59:25;1.90;99.90
5196;DHT22;2617;51.006;12.436;2024-01-15T10:04:28;1.70;99.90
5196;DHT22;2617;51.006;12.436;2024-01-15T10:09:31;1.70;99.90
5196;DHT22;2617;51.006;12.436;2024-01-15T10:14:33;1.70;99.90
5196;DHT22;2617;51.006;12.436;2024-01-15T10:19:36;1.80;99.90
5196;DHT22;2617;51.006;12.436;2024-01-15T10:24:40;2.00;99.90
5196;DHT22;2617;51.006;12.436;2024-01-15T10:29:41;1.90;99.90
5196;DHT22;2617;51.006;12.436;2024-01-15T10:34:44;2.00;99.90
5196;DHT22;2617;51.006;12.436;2024-01-15T10:39:46;2.10;99.90
5196;DHT22;2617;51.006;12.436;2024-01-15T10:44:49;2.00;99.90
5196;DHT22;2617;51.006;12.436;2024-01-15T10:49:51;1.90;99.90
5196;DHT22;2617;51.006;12.436;2024-01-15T10:54:54;2.30;99.90
5196;DHT22;2617;51.006;12.436;2024-01-15T10:59:57;2.30;99.90
5196;DHT22;2617;51.006;12.436;2024-01-15T11:05:00;2.60;99.90
5196;DHT22;2617;51.006;12.436;2024-01-15T11:10:04;2.60;99.90
5196;DHT22;2617;51.006;12.436;2024-01-15T11:15:08;2.60;99.90
5196;DHT22;2617;51.006;12.436;2024-01-15T11:20:10;2.50;99.90
5196;DHT22;2617;51.006;12.436;2024-01-15T11:25:14;2.30;99.90
5196;DHT22;2617;51.006;12.436;2024-01-15T11:30:17;2.30;99.90
5196;DHT22;2617;51.006;12.436;2024-01-15T11:35:19;2.30;99.90
5196;DHT22;2617;51.006;12.436;2024-01-15T11:45:39;2.30;99.90
5196;DHT22;2617;51.006;12.436;2024-01-15T11:50:47;2.30;99.90
5196;DHT22;2617;51.006;12.436;2024-01-15T11:55:49;2.20;99.90
5196;DHT22;2617;51.006;12.436;2024-01-15T12:00:51;2.20;99.90
5196;DHT22;2617;51.006;12.436;2024-01-15T12:05:54;2.10;99.90
5196;DHT22;2617;51.006;12.436;2024-01-15T12:10:56;2.10;99.90
5196;DHT22;2617;51.006;12.436;2024-01-15T12:15:59;2.20;99.90
5196;DHT22;2617;51.006;12.436;2024-01-15T12:21:03;2.30;99.90
5196;DHT22;2617;51.006;12.436;2024-01-15T12:26:05;2.30;99.90
5196;DHT22;2617;51.006;12.436;2024-01-15T12:31:08;2.40;99.90
5196;DHT22;2617;51.006;12.436;2024-01-15T12:36:12;2.40;99.90
5196;DHT22;2617;51.006;12.436;2024-01-15T12:41:14;2.40;99.90
5196;DHT22;2617;51.006;12.436;2024-01-15T12:46:16;2.30;99.90
5196;DHT22;2617;51.006;12.436;2024-01-15T12:51:19;2.20;99.90
5196;DHT22;2617;51.006;12.436;2024-01-15T12:56:22;2.20;99.90
5196;DHT22;2617;51.006;12.436;2024-01-15T13:01:24;2.10;99.90
5196;DHT22;2617;51.006;12.436;2024-01-15T13:06:27;2.20;99.90
5196;DHT22;2617;51.006;12.436;2024-01-15T13:11:29;2.20;99.90
5196;DHT22;2617;51.006;12.436;2024-01-15T13:16:32;2.20;99.90
5196;DHT22;2617;51.006;12.436;2024-01-15T13:21:35;2.40;99.90
5196;DHT22;2617;51.006;12.436;2024-01-15T13:26:37;2.60;99.90
5196;DHT22;2617;51.006;12.436;2024-01-15T13:31:40;2.70;99.90
5196;DHT22;2617;51.006;12.436;2024-01-15T13:36:42;2.70;99.90
5196;DHT22;2617;51.006;12.436;2024-01-15T13:41:45;2.60;99.90
5196;DHT22;2617;51.006;12.436;2024-01-15T13:46:48;2.50;99.90
5196;DHT22;2617;51.006;12.436;2024-01-15T13:51:50;2.50;99.90
5196;DHT22;2617;51.006;12.436;2024-01-15T13:56:54;2.30;99.90
5196;DHT22;2617;51.006;12.436;2024-01-15T14:01:56;2.30;99.90
5196;DHT22;2617;51.006;12.436;2024-01-15T14:06:59;2.20;99.90
5196;DHT22;2617;51.006;12.436;2024-01-15T14:12:03;2.20;99.90
5196;DHT22;2617;51.006;12.436;2024-01-15T14:17:06;2.10;99.90
5196;DHT22;2617;51.006;12.436;2024-01-15T14:22:09;2.00;99.90
5196;DHT22;2617;51.006;12.436;2024-01-15T14:27:11;1.90;99.90
5196;DHT22;2617;51.006;12.436;2024-01-15T14:32:14;1.80;99.90
5196;DHT22;2617;51.006;12.436;2024-01-15T14:37:16;1.70;99.90
5196;DHT22;2617;51.006;12.436;2024-01-15T14:42:19;1.60;99.90
5196;DHT22;2617;51.006;12.436;2024-01-15T14:47:22;1.60;99.90
5196;DHT22;2617;51.006;12.436;2024-01-15T14:52:25;1.50;99.90
5196;DHT22;2617;51.006;12.436;2024-01-15T14:57:27;1.50;99.90
5196;DHT22;2617;51.006;12.436;2024-01-15T15:02:31;1.20;99.90
5196;DHT22;2617;51.006;12.436;2024-01-15T15:07:33;1.30;99.90
5196;DHT22;2617;51.006;12.436;2024-01-15T15:12:36;1.20;99.90
5196;DHT22;2617;51.006;12.436;2024-01-15T15:17:39;1.10;99.90
5196;DHT22;2617;51.006;12.436;2024-01-15T15:22:42;1.10;99.90
5196;DHT22;2617;51.006;12.436;2024-01-15T15:27:44;1.10;99.90
5196;DHT22;2617;51.006;12.436;2024-01-15T15:32:47;1.20;99.90
5196;DHT22;2617;51.006;12.436;2024-01-15T15:37:49;1.20;99.90
5196;DHT22;2617;51.006;12.436;2024-01-15T15:42:52;1.40;99.90
5196;DHT22;2617;51.006;12.436;2024-01-15T15:47:55;1.30;99.90
5196;DHT22;2617;51.006;12.436;2024-01-15T15:52:57;1.40;99.90
5196;DHT22;2617;51.006;12.436;2024-01-15T15:58:00;1.40;99.90
5196;DHT22;2617;51.006;12.436;2024-01-15T16:03:03;1.30;99.90
5196;DHT22;2617;51.006;12.436;2024-01-15T16:08:05;1.30;99.90
5196;DHT22;2617;51.006;12.436;2024-01-15T16:13:09;1.30;99.90
5196;DHT22;2617;51.006;12.436;2024-01-15T16:18:12;1.20;99.90
5196;DHT22;2617;51.006;12.436;2024-01-15T16:23:14;1.20;99.90
5196;DHT22;2617;51.006;12.436;2024-01-15T16:28:17;1.10;99.90
5196;DHT22;2617;51.006;12.436;2024-01-15T16:33:19;1.20;99.90
5196;DHT22;2617;51.006;12.436;2024-01-15T16:38:23;1.10;99.90
5196;DHT22;2617;51.006;12.436;2024-01-15T16:43:26;1.20;99.90
5196;DHT22;2617;51.006;12.436;2024-01-15T16:48:28;1.10;99.90
5196;DHT22;2617;51.006;12.436;2024-01-15T16:53:32;1.20;99.90
5196;DHT22;2617;51.006;12.436;2024-01-15T16:58:34;1.20;99.90
5196;DHT22;2617;51.006;12.436;2024-01-15T17:03:36;1.20;99.90
5196;DHT22;2617;51.006;12.436;2024-01-15T17:08:40;1.30;99.90
5196;DHT22;2617;51.006;12.436;2024-01-15T17:13:43;1.30;99.90
5196;DHT22;2617;51.006;12.436;2024-01-15T17:18:46;1.30;99.90
5196;DHT22;2617;51.006;12.436;2024-01-15T17:23:49;1.20;99.90
5196;DHT22;2617;51.006;12.436;2024-01-15T17:28:52;1.20;99.90
5196;DHT22;2617;51.006;12.436;2024-01-15T17:33:55;1.20;99.90
5196;DHT22;2617;51.006;12.436;2024-01-15T17:38:57;1.20;99.90
5196;DHT22;2617;51.006;12.436;2024-01-15T17:44:00;1.20;99.90
5196;DHT22;2617;51.006;12.436;2024-01-15T17:49:03;1.10;99.90
5196;DHT22;2617;51.006;12.436;2024-01-15T17:54:06;1.20;99.90
5196;DHT22;2617;51.006;12.436;2024-01-15T17:59:10;1.20;99.90
5196;DHT22;2617;51.006;12.436;2024-01-15T18:04:12;1.20;99.90
5196;DHT22;2617;51.006;12.436;2024-01-15T18:09:15;1.30;99.90
5196;DHT22;2617;51.006;12.436;2024-01-15T18:14:18;1.20;99.90
5196;DHT22;2617;51.006;12.436;2024-01-15T18:19:20;1.20;99.90
5196;DHT22;2617;51.006;12.436;2024-01-15T18:24:22;1.20;99.90
5196;DHT22;2617;51.006;12.436;2024-01-15T18:29:25;1.10;99.90
5196;DHT22;2617;51.006;12.436;2024-01-15T18:34:27;1.10;99.90
5196;DHT22;2617;51.006;12.436;2024-01-15T18:39:30;1.10;99.90
5196;DHT22;2617;51.006;12.436;2024-01-15T18:44:32;1.20;99.90
5196;DHT22;2617;51.006;12.436;2024-01-15T18:49:34;1.20;99.90
5196;DHT22;2617;51.006;12.436;2024-01-15T18:54:37;1.20;99.90
5196;DHT22;2617;51.006;12.436;2024-01-15T18:59:43;1.30;99.90
5196;DHT22;2617;51.006;12.436;2024-01-15T19:04:46;1.30;99.90
5196;DHT22;2617;51.006;12.436;2024-01-15T19:09:49;1.30;99.90
5196;DHT22;2617;51.006;12.436;2024-01-15T19:14:52;1.20;99.90
5196;DHT22;2617;51.006;12.436;2024-01-15T19:19:55;1.20;99.90
5196;DHT22;2617;51.006;12.436;2024-01-15T19:24:57;1.20;99.90
5196;DHT22;2617;51.006;12.436;2024-01-15T19:30:00;1.20;99.90
5196;DHT22;2617;51.006;12.436;2024-01-15T19:35:03;1.20;99.90
5196;DHT22;2617;51.006;12.436;2024-01-15T19:40:07;0.80;99.90
5196;DHT22;2617;51.006;12.436;2024-01-15T19:45:10;0.80;99.90
5196;DHT22;2617;51.006;12.436;2024-01-15T19:50:12;0.70;99.90
5196;DHT22;2617;51.006;12.436;2024-01-15T19:55:15;0.40;99.90
5196;DHT22;2617;51.006;12.436;2024-01-15T20:00:17;0.40;99.90
5196;DHT22;2617;51.006;12.436;2024-01-15T20:05:20;0.40;99.90
5196;DHT22;2617;51.006;12.436;2024-01-15T20:10:22;0.50;99.90
5196;DHT22;2617;51.006;12.436;2024-01-15T20:15:25;0.40;99.90
5196;DHT22;2617;51.006;12.436;2024-01-15T20:20:28;0.40;99.90
5196;DHT22;2617;51.006;12.436;2024-01-15T20:25:31;0.40;99.90
5196;DHT22;2617;51.006;12.436;2024-01-15T20:30:33;0.40;99.90
5196;DHT22;2617;51.006;12.436;2024-01-15T20:35:36;0.40;99.90
5196;DHT22;2617;51.006;12.436;2024-01-15T20:40:38;0.40;99.90
5196;DHT22;2617;51.006;12.436;2024-01-15T20:45:41;0.60;99.90
5196;DHT22;2617;51.006;12.436;2024-01-15T20:50:43;0.60;99.90
5196;DHT22;2617;51.006;12.436;2024-01-15T20:55:46;0.60;99.90
5196;DHT22;2617;51.006;12.436;2024-01-15T21:00:50;0.70;99.90
5196;DHT22;2617;51.006;12.436;2024-01-15T21:05:52;0.70;99.90
5196;DHT22;2617;51.006;12.436;2024-01-15T21:10:55;0.70;99.90
5196;DHT22;2617;51.006;12.436;2024-01-15T21:15:57;0.70;99.90
5196;DHT22;2617;51.006;12.436;2024-01-15T21:21:00;0.80;99.90
5196;DHT22;2617;51.006;12.436;2024-01-15T21:26:03;0.80;99.90
5196;DHT22;2617;51.006;12.436;2024-01-15T21:31:06;0.80;99.90
5196;DHT22;2617;51.006;12.436;2024-01-15T21:36:09;0.80;99.90
5196;DHT22;2617;51.006;12.436;2024-01-15T21:41:11;0.80;99.90
5196;DHT22;2617;51.006;12.436;2024-01-15T21:46:14;0.80;99.90
5196;DHT22;2617;51.006;12.436;2024-01-15T21:51:17;0.80;99.90
5196;DHT22;2617;51.006;12.436;2024-01-15T21:56:21;0.90;99.90
5196;DHT22;2617;51.006;12.436;2024-01-15T22:01:23;0.80;99.90
5196;DHT22;2617;51.006;12.436;2024-01-15T22:06:26;0.90;99.90
5196;DHT22;2617;51.006;12.436;2024-01-15T22:11:29;0.90;99.90
5196;DHT22;2617;51.006;12.436;2024-01-15T22:16:31;0.80;99.90
5196;DHT22;2617;51.006;12.436;2024-01-15T22:21:40;0.80;99.90
5196;DHT22;2617;51.006;12.436;2024-01-15T22:26:36;0.70;99.90
5196;DHT22;2617;51.006;12.436;2024-01-15T22:31:38;0.80;99.90
5196;DHT22;2617;51.006;12.436;2024-01-15T22:36:42;0.80;99.90
5196;DHT22;2617;51.006;12.436;2024-01-15T22:41:44;0.70;99.90
5196;DHT22;2617;51.006;12.436;2024-01-15T22:46:47;0.70;99.90
5196;DHT22;2617;51.006;12.436;2024-01-15T22:51:49;0.70;99.90
5196;DHT22;2617;51.006;12.436;2024-01-15T22:56:51;0.70;99.90
5196;DHT22;2617;51.006;12.436;2024-01-15T23:01:54;0.80;99.90
5196;DHT22;2617;51.006;12.436;2024-01-15T23:06:56;0.80;99.90
5196;DHT22;2617;51.006;12.436;2024-01-15T23:11:59;0.80;99.90
5196;DHT22;2617;51.006;12.436;2024-01-15T23:17:02;0.60;99.90
5196;DHT22;2617;51.006;12.436;2024-01-15T23:22:05;0.60;99.90
5196;DHT22;2617;51.006;12.436;2024-01-15T23:27:07;0.40;99.90
5196;DHT22;2617;51.006;12.436;2024-01-15T23:32:10;0.40;99.90
5196;DHT22;2617;51.006;12.436;2024-01-15T23:37:12;0.30;99.90
5196;DHT22;2617;51.006;12.436;2024-01-15T23:42:15;0.40;99.90
5196;DHT22;2617;51.006;12.436;2024-01-15T23:47:19;0.50;99.90
5196;DHT22;2617;51.006;12.436;2024-01-15T23:52:21;0.50;99.90
5196;DHT22;2617;51.006;12.436;2024-01-15T23:57:24;0.60;99.90
